Time;durP1;ratioP1;P1;durP2;ratioP2;P2;SDS_P1;SDS_P2;PMS_P1;PMS_P2;Temp;Humidity;BMP_temperature;BMP_pressure;BME280_temperature;BME280_humidity;BME280_pressure;Samples;Min_cycle;Max_cycle;Signal;HPM_P1;HPM_P2
2021/12/20 00:00:17;;;;;;;17.27;14.90;;;;;;;11.38;68.37;99841.78;5044051;27;102103;-49
2021/12/20 00:02:47;;;;;;;18.67;14.45;;;;;;;11.38;68.90;99841.00;5049653;27;102285;-50
2021/12/20 00:05:15;;;;;;;18.27;13.45;;;;;;;11.39;68.86;99840.69;5038725;27;103067;-49
2021/12/20 00:07:41;;;;;;;20.33;14.85;;;;;;;11.39;68.75;99839.88;5033723;27;103270;-49
2021/12/20 00:10:09;;;;;;;17.73;14.13;;;;;;;11.38;68.82;99839.06;5040597;27;102803;-50
2021/12/20 00:12:37;;;;;;;18.30;14.60;;;;;;;11.39;68.86;99831.69;5041491;27;102295;-48
2021/12/20 00:15:05;;;;;;;16.67;13.17;;;;;;;11.39;68.46;99837.16;5036166;27;102920;-49
2021/12/20 00:17:32;;;;;;;19.33;14.50;;;;;;;11.39;68.44;99845.31;5038207;27;102740;-49
2021/12/20 00:19:58;;;;;;;15.85;13.63;;;;;;;11.39;69.10;99837.97;5034113;27;102281;-49
2021/12/20 00:22:25;;;;;;;16.83;13.90;;;;;;;11.39;68.69;99842.59;5047209;27;102722;-49
2021/12/20 00:24:51;;;;;;;18.83;14.10;;;;;;;11.39;68.95;99842.59;5051945;27;102223;-49
2021/12/20 00:27:19;;;;;;;16.15;13.43;;;;;;;11.39;68.95;99837.16;5048840;27;103960;-49
2021/12/20 00:29:50;;;;;;;18.48;13.32;;;;;;;11.39;68.75;99839.88;5035013;27;102613;-49
2021/12/20 00:32:17;;;;;;;17.58;13.63;;;;;;;11.39;68.96;99842.59;5048745;27;102651;-49
2021/12/20 00:34:45;;;;;;;17.55;13.73;;;;;;;11.39;68.46;99837.16;5046149;27;102600;-50
2021/12/20 00:42:43;;;;;;;16.77;13.00;;;;;;;11.39;68.73;99821.59;5043997;27;102162;-49
2021/12/20 00:45:12;;;;;;;16.98;13.25;;;;;;;11.39;68.72;99826.25;5038436;27;102389;-49
2021/12/20 00:47:42;;;;;;;17.92;13.60;;;;;;;11.40;69.01;99822.44;5036034;27;103942;-49
2021/12/20 00:50:10;;;;;;;17.42;13.65;;;;;;;11.38;68.51;99824.66;5036408;27;102283;-49
2021/12/20 00:52:39;;;;;;;15.48;13.38;;;;;;;11.38;68.59;99819.19;5040639;27;102212;-49
2021/12/20 00:55:06;;;;;;;16.20;12.43;;;;;;;11.40;68.76;99811.53;5051005;27;102887;-50
2021/12/20 00:57:33;;;;;;;17.08;13.18;;;;;;;11.39;68.78;99812.63;5038717;27;107041;-50
2021/12/20 01:00:01;;;;;;;15.50;12.52;;;;;;;11.39;68.85;99807.19;5039491;27;102381;-49
2021/12/20 01:02:28;;;;;;;14.95;12.45;;;;;;;11.39;68.50;99809.91;5045373;27;102291;-49
2021/12/20 01:04:55;;;;;;;16.42;12.52;;;;;;;11.39;69.01;99794.38;5045957;27;102314;-48
2021/12/20 01:07:21;;;;;;;14.75;12.68;;;;;;;11.39;68.78;99807.19;5035394;27;103874;-49
2021/12/20 01:09:48;;;;;;;16.00;11.90;;;;;;;11.39;68.78;99804.47;5035687;27;102122;-49
2021/12/20 01:12:18;;;;;;;15.32;12.02;;;;;;;11.39;69.00;99809.91;5035304;27;102373;-49
2021/12/20 01:14:46;;;;;;;16.58;12.23;;;;;;;11.38;68.69;99803.66;5040283;27;102210;-49
2021/12/20 01:17:12;;;;;;;14.20;11.35;;;;;;;11.39;68.84;99799.81;5045632;27;103872;-49
2021/12/20 01:19:40;;;;;;;14.65;11.60;;;;;;;11.39;69.07;99799.81;5038962;27;102274;-49
2021/12/20 01:22:07;;;;;;;15.55;11.82;;;;;;;11.38;69.09;99806.38;5040811;27;102988;-49
2021/12/20 01:24:34;;;;;;;13.98;11.50;;;;;;;11.39;68.72;99809.91;5036466;27;102469;-50
2021/12/20 01:27:00;;;;;;;16.05;13.02;;;;;;;11.39;68.69;99816.16;5046475;27;104060;-49
2021/12/20 01:29:27;;;;;;;13.52;10.95;;;;;;;11.38;68.88;99803.66;5037432;27;102196;-49
2021/12/20 01:31:54;;;;;;;13.75;11.55;;;;;;;11.39;68.74;99809.91;5038109;27;102219;-49
2021/12/20 01:34:20;;;;;;;13.57;11.00;;;;;;;11.39;68.56;99809.91;5043674;27;102420;-49
2021/12/20 01:36:48;;;;;;;13.75;11.10;;;;;;;11.39;69.07;99812.63;5047865;27;103916;-49
2021/12/20 01:39:15;;;;;;;12.40;10.65;;;;;;;11.38;68.73;99813.75;5047134;27;102240;-49
2021/12/20 01:41:43;;;;;;;14.02;11.13;;;;;;;11.39;69.01;99813.44;5042228;27;102501;-49
2021/12/20 01:44:10;;;;;;;12.38;10.10;;;;;;;11.39;68.70;99815.34;5042730;27;102417;-49
2021/12/20 01:46:36;;;;;;;12.57;10.50;;;;;;;11.39;68.70;99804.47;5037800;27;103903;-49
2021/12/20 01:49:08;;;;;;;12.43;10.20;;;;;;;11.39;68.84;99797.09;5046649;27;102293;-50
2021/12/20 01:54:05;;;;;;;13.00;10.43;;;;;;;11.38;68.90;99791.94;5046758;27;102273;-49
2021/12/20 01:56:36;;;;;;;12.60;10.82;;;;;;;11.39;68.97;99796.28;5050272;27;103983;-51
2021/12/20 01:59:03;;;;;;;13.60;10.45;;;;;;;11.38;68.92;99797.41;5045109;27;102292;-49
2021/12/20 02:01:31;;;;;;;11.97;10.33;;;;;;;11.38;68.97;99789.22;5049181;27;102798;-49
2021/12/20 02:04:00;;;;;;;12.85;10.40;;;;;;;11.39;68.60;99788.13;5037320;27;102168;-49
2021/12/20 02:06:34;;;;;;;12.75;10.60;;;;;;;11.38;68.61;99792.75;5044243;27;103942;-48
2021/12/20 02:09:06;;;;;;;12.52;9.77;;;;;;;11.38;68.75;99797.41;5052908;27;102519;-49
2021/12/20 02:11:34;;;;;;;11.52;9.88;;;;;;;11.39;68.88;99799.00;5037348;27;102282;-49
2021/12/20 02:14:01;;;;;;;12.60;9.70;;;;;;;11.39;69.05;99791.66;5042174;27;102291;-49
2021/12/20 02:16:27;;;;;;;11.30;9.30;;;;;;;11.38;68.80;99786.50;5052778;27;104050;-50
2021/12/20 02:18:54;;;;;;;10.73;9.27;;;;;;;11.38;69.06;99781.06;5037971;27;102138;-49
2021/12/20 02:21:21;;;;;;;12.18;10.00;;;;;;;11.39;68.92;99788.91;5038692;27;102151;-50
2021/12/20 02:23:51;;;;;;;10.60;9.20;;;;;;;11.38;68.67;99781.88;5041249;27;102341;-50
2021/12/20 02:26:19;;;;;;;12.70;9.82;;;;;;;11.38;68.81;99781.06;5050768;27;104070;-50
2021/12/20 02:28:52;;;;;;;10.88;8.73;;;;;;;11.38;69.10;99781.88;5050773;27;102243;-49
2021/12/20 02:37:02;;;;;;;11.60;9.32;;;;;;;11.38;69.13;99772.88;5040069;27;103913;-49
2021/12/20 02:39:29;;;;;;;13.15;9.45;;;;;;;11.38;68.75;99772.88;5039790;27;102264;-49
2021/12/20 02:41:56;;;;;;;11.73;8.93;;;;;;;11.38;68.88;99775.59;5042503;27;102528;-50
2021/12/20 02:44:25;;;;;;;10.93;8.68;;;;;;;11.38;68.57;99781.06;5042159;27;102236;-49
2021/12/20 02:49:21;;;;;;;;;;;;;;;11.38;68.49;99779.13;5050142;27;102417;-49
2021/12/20 02:51:51;;;;;;;10.55;8.50;;;;;;;11.38;68.83;99786.50;5037909;27;102568;-49
2021/12/20 02:54:21;;;;;;;10.63;8.70;;;;;;;11.38;68.85;99786.50;5040161;27;102563;-49
2021/12/20 02:56:48;;;;;;;10.30;8.10;;;;;;;11.38;68.57;99786.50;5044471;27;103811;-50
2021/12/20 02:59:16;;;;;;;10.93;8.50;;;;;;;11.39;68.67;99782.66;5040166;27;102311;-49
2021/12/20 03:01:44;;;;;;;8.85;7.63;;;;;;;11.37;68.99;99788.44;5041318;27;102107;-49
2021/12/20 03:04:11;;;;;;;8.93;7.82;;;;;;;11.39;68.77;99793.56;5049007;27;102314;-49
2021/12/20 03:06:41;;;;;;;10.43;8.40;;;;;;;11.37;68.77;99788.44;5049944;27;103809;-50
2021/12/20 03:09:14;;;;;;;10.48;8.13;;;;;;;11.38;68.99;99802.84;5051494;27;103735;-49
2021/12/20 03:11:42;;;;;;;8.45;7.40;;;;;;;11.37;68.75;99802.03;5034387;27;102996;-48
2021/12/20 03:14:23;;;;;;;8.48;7.57;;;;;;;11.38;68.99;99800.13;5052056;27;103700;-49
2021/12/20 03:16:50;;;;;;;8.82;7.82;;;;;;;11.38;68.98;99805.56;5036525;27;104096;-49
2021/12/20 03:19:16;;;;;;;9.85;8.02;;;;;;;11.38;69.05;99802.84;5043783;27;102152;-50
2021/12/20 03:21:43;;;;;;;9.35;7.68;;;;;;;11.39;69.02;99809.91;5035567;27;102147;-49
2021/12/20 03:24:11;;;;;;;9.07;7.60;;;;;;;11.38;68.96;99802.84;5043337;27;103246;-51
2021/12/20 03:26:38;;;;;;;9.25;7.47;;;;;;;11.38;68.93;99802.84;5035872;27;103958;-49
2021/12/20 03:29:05;;;;;;;8.25;7.45;;;;;;;11.38;69.26;99802.84;5039413;27;102701;-49
2021/12/20 03:31:32;;;;;;;7.95;7.07;;;;;;;11.37;69.20;99799.31;5034874;27;102474;-50
2021/12/20 03:33:59;;;;;;;8.88;7.28;;;;;;;11.38;68.83;99802.84;5049052;27;102302;-49
2021/12/20 03:36:26;;;;;;;8.40;6.85;;;;;;;11.38;68.95;99802.84;5041262;27;104233;-50
2021/12/20 03:38:52;;;;;;;8.80;7.32;;;;;;;11.37;68.81;99801.25;5045103;27;102480;-49
2021/12/20 03:41:24;;;;;;;8.30;7.00;;;;;;;11.37;68.91;99798.53;5042300;27;102042;-49
2021/12/20 03:43:50;;;;;;;8.98;7.07;;;;;;;11.38;68.96;99809.09;5041725;27;103772;-49
2021/12/20 03:46:18;;;;;;;7.35;6.60;;;;;;;11.37;68.74;99803.97;5040232;27;103751;-50
2021/12/20 03:48:44;;;;;;;7.75;6.80;;;;;;;11.38;68.79;99808.31;5042095;27;102290;-49
2021/12/20 03:51:11;;;;;;;8.68;6.75;;;;;;;11.37;69.00;99812.13;5048192;27;102475;-49
2021/12/20 03:53:37;;;;;;;8.35;7.25;;;;;;;11.38;68.90;99808.31;5044337;27;104271;-49
2021/12/20 03:56:05;;;;;;;7.40;6.63;;;;;;;11.37;68.88;99806.69;5043806;27;103993;-50
2021/12/20 03:58:34;;;;;;;8.73;7.40;;;;;;;11.37;68.80;99812.94;5049952;27;102721;-49
2021/12/20 04:01:04;;;;;;;7.87;6.73;;;;;;;11.37;69.20;99817.59;5050981;27;102167;-49
2021/12/20 04:03:33;;;;;;;8.77;7.18;;;;;;;11.38;69.17;99819.19;5037086;27;102284;-50
2021/12/20 04:06:00;;;;;;;;;;;;;;;11.38;69.06;99824.66;5049548;27;103906;-48
2021/12/20 04:08:26;;;;;;;8.27;6.55;;;;;;;11.38;68.75;99824.66;5049418;27;102226;-50
2021/12/20 04:10:53;;;;;;;6.97;6.28;;;;;;;11.38;68.81;99813.75;5036257;27;102219;-49
2021/12/20 04:13:19;;;;;;;6.63;5.78;;;;;;;11.37;68.91;99825.75;5047815;27;102208;-49
2021/12/20 04:15:47;;;;;;;6.72;5.97;;;;;;;11.37;69.06;99828.47;5046706;27;103972;-50
2021/12/20 04:18:13;;;;;;;6.43;5.72;;;;;;;11.37;68.87;99831.22;5036160;27;103358;-49
2021/12/20 04:20:41;;;;;;;6.85;5.93;;;;;;;11.38;68.86;99835.53;5037242;27;102194;-49
2021/12/20 04:23:07;;;;;;;7.18;5.80;;;;;;;11.38;68.99;99838.25;5040674;27;103894;-49
2021/12/20 04:25:35;;;;;;;7.30;5.90;;;;;;;11.36;68.95;99844.03;5043439;27;104005;-49
2021/12/20 04:28:02;;;;;;;6.65;5.95;;;;;;;11.37;68.98;99855.72;5048035;27;102206;-49
2021/12/20 04:30:31;;;;;;;7.30;5.85;;;;;;;11.37;69.27;99855.72;5039100;27;103201;-49
2021/12/20 04:32:59;;;;;;;6.68;5.75;;;;;;;11.37;69.07;99850.28;5044476;27;102572;-50
2021/12/20 04:35:26;;;;;;;6.65;5.80;;;;;;;11.37;69.05;99856.53;5042802;27;103690;-49
2021/12/20 04:37:53;;;;;;;6.43;5.60;;;;;;;11.37;68.72;99863.91;5039857;27;102206;-49
2021/12/20 04:40:22;;;;;;;6.95;5.90;;;;;;;11.37;68.87;99864.69;5048084;27;104125;-49
2021/12/20 04:42:51;;;;;;;7.15;5.57;;;;;;;11.37;69.20;99863.91;5040198;27;102596;-49
2021/12/20 04:45:18;;;;;;;7.75;6.03;;;;;;;11.36;69.22;99862.25;5033749;27;103939;-51
2021/12/20 04:47:46;;;;;;;7.30;5.90;;;;;;;11.36;68.74;99870.44;5039389;27;102068;-49
2021/12/20 04:50:14;;;;;;;5.82;5.22;;;;;;;11.36;69.12;99874.00;5050086;27;102216;-49
2021/12/20 04:52:41;;;;;;;6.00;4.93;;;;;;;11.37;69.23;99885.69;5038962;27;102494;-49
2021/12/20 04:55:09;;;;;;;5.43;4.93;;;;;;;11.36;68.77;99881.31;5039708;27;104059;-50
2021/12/20 04:57:36;;;;;;;6.40;5.00;;;;;;;11.37;69.06;99885.69;5035286;27;102585;-49
2021/12/20 05:00:05;;;;;;;5.35;4.85;;;;;;;11.36;69.19;99884.06;5034838;27;105802;-49
2021/12/20 05:02:31;;;;;;;;;;;;;;;11.37;69.21;99877.53;5036007;27;103049;-49
2021/12/20 05:04:57;;;;;;;5.40;4.90;;;;;;;11.36;68.73;99879.44;5035536;27;103826;-49
2021/12/20 05:07:27;;;;;;;5.53;4.82;;;;;;;11.37;69.12;99888.41;5040436;27;102124;-49
2021/12/20 05:09:58;;;;;;;6.13;5.00;;;;;;;11.37;69.05;99869.34;5041051;27;102222;-49
2021/12/20 05:12:25;;;;;;;5.13;4.63;;;;;;;11.37;69.02;99872.06;5039411;27;105763;-49
2021/12/20 05:14:52;;;;;;;4.90;4.40;;;;;;;11.37;69.16;99863.91;5056003;27;103893;-49
2021/12/20 05:17:19;;;;;;;6.03;4.65;;;;;;;11.36;68.74;99867.72;5047457;27;102695;-49
2021/12/20 05:19:46;;;;;;;5.80;4.72;;;;;;;11.36;68.88;99875.88;5047011;27;102379;-49
2021/12/20 05:22:12;;;;;;;6.35;4.88;;;;;;;11.36;69.08;99884.06;5039867;27;103083;-49
2021/12/20 05:24:40;;;;;;;5.13;4.30;;;;;;;11.36;68.86;99892.22;5039931;27;104123;-49
2021/12/20 05:27:07;;;;;;;6.07;4.38;;;;;;;11.36;69.25;99897.69;5050780;27;102474;-49
2021/12/20 05:29:33;;;;;;;5.07;4.47;;;;;;;11.37;68.90;99888.41;5049678;27;102237;-49
2021/12/20 05:32:04;;;;;;;5.28;4.40;;;;;;;11.35;69.04;99885.16;5043380;27;102522;-48
2021/12/20 05:34:31;;;;;;;4.82;4.32;;;;;;;11.36;68.74;99893.06;5046836;27;104513;-49
2021/12/20 05:36:58;;;;;;;4.70;4.25;;;;;;;11.36;69.13;99889.50;5040154;27;105171;-49
2021/12/20 05:39:24;;;;;;;5.05;4.07;;;;;;;11.36;68.98;99890.34;5049434;27;102167;-49
2021/12/20 05:41:52;;;;;;;4.55;4.13;;;;;;;11.37;68.74;99893.88;5048268;27;102529;-48
2021/12/20 05:44:19;;;;;;;4.60;3.88;;;;;;;11.36;68.78;99909.41;5038205;27;103711;-48
2021/12/20 05:46:45;;;;;;;5.28;4.18;;;;;;;11.36;69.04;99903.13;5017282;28;102164;-48
2021/12/20 05:49:12;;;;;;;5.05;4.07;;;;;;;11.37;68.81;99910.22;4998442;28;102466;-49
2021/12/20 05:51:39;;;;;;;4.15;3.75;;;;;;;11.37;68.85;99910.22;5006514;28;102220;-48
2021/12/20 05:54:06;;;;;;;4.43;3.78;;;;;;;11.36;68.94;99924.91;5007656;28;103910;-51
2021/12/20 05:56:32;;;;;;;4.30;3.90;;;;;;;11.36;68.75;99922.19;4998950;28;103946;-49
2021/12/20 05:59:00;;;;;;;4.20;3.70;;;;;;;11.36;69.03;99924.91;5010118;28;102640;-48
2021/12/20 06:01:27;;;;;;;4.95;4.10;;;;;;;11.37;69.07;99915.66;4996934;28;104211;-49
2021/12/20 06:03:53;;;;;;;4.25;3.72;;;;;;;11.36;69.02;99930.38;5004418;28;104129;-49
2021/12/20 06:06:20;;;;;;;4.05;3.65;;;;;;;11.36;68.99;99933.91;5004348;28;102190;-49
2021/12/20 06:08:46;;;;;;;4.05;3.65;;;;;;;11.36;69.10;99925.75;4995059;28;103532;-50
2021/12/20 06:11:13;;;;;;;3.90;3.50;;;;;;;11.35;68.93;99935.00;4999839;28;102159;-49
2021/12/20 06:13:40;;;;;;;4.25;3.85;;;;;;;11.36;68.71;99935.81;4997078;28;103952;-49
2021/12/20 06:16:07;;;;;;;4.85;3.38;;;;;;;11.36;68.92;99930.38;5001767;28;102198;-48
2021/12/20 06:18:34;;;;;;;4.18;3.78;;;;;;;11.36;69.27;99949.44;5000364;28;101921;-49
2021/12/20 06:21:00;;;;;;;4.15;3.75;;;;;;;11.36;68.79;99954.88;5006020;28;103992;-49
2021/12/20 06:23:29;;;;;;;4.43;3.77;;;;;;;11.36;68.77;99952.16;4998051;28;103868;-49
2021/12/20 06:25:56;;;;;;;3.88;3.47;;;;;;;11.35;69.02;99961.44;5006153;28;103534;-49
2021/12/20 06:28:22;;;;;;;4.15;3.25;;;;;;;11.36;69.03;99965.78;5002388;28;103607;-49
2021/12/20 06:30:48;;;;;;;3.28;2.97;;;;;;;11.35;69.32;99972.34;4999714;28;102275;-50
2021/12/20 06:33:16;;;;;;;3.83;3.42;;;;;;;11.35;69.11;99962.25;4997911;28;103867;-49
2021/12/20 06:35:43;;;;;;;3.63;3.33;;;;;;;11.35;69.08;99967.69;5000522;28;103364;-49
2021/12/20 06:38:17;;;;;;;3.25;2.95;;;;;;;11.35;68.77;99972.34;4998768;28;102268;-48
2021/12/20 06:40:43;;;;;;;3.70;3.28;;;;;;;11.36;69.26;99979.41;5004729;28;103925;-51
2021/12/20 06:43:10;;;;;;;3.75;3.15;;;;;;;11.35;68.90;99972.34;5000347;28;103857;-49
2021/12/20 06:45:37;;;;;;;3.63;2.88;;;;;;;11.37;69.24;99978.31;5004671;27;104234;-49
2021/12/20 06:48:04;;;;;;;3.35;3.05;;;;;;;11.35;69.16;99978.59;5041759;27;102299;-49
2021/12/20 06:50:33;;;;;;;3.70;3.25;;;;;;;11.35;68.93;99988.69;5042873;27;103068;-49
2021/12/20 06:53:00;;;;;;;3.83;3.42;;;;;;;11.36;69.01;99990.28;5039094;27;103896;-49
2021/12/20 06:55:26;;;;;;;3.25;2.85;;;;;;;11.35;69.07;99989.50;5040475;27;102441;-49
2021/12/20 06:57:53;;;;;;;4.05;2.90;;;;;;;11.36;69.06;100012.09;5044565;27;102495;-49
2021/12/20 07:00:20;;;;;;;3.42;3.13;;;;;;;11.35;68.94;100010.47;5037730;27;102336;-49
2021/12/20 07:02:49;;;;;;;3.00;2.70;;;;;;;11.36;69.16;100023.00;5032956;27;105754;-49
2021/12/20 07:05:16;;;;;;;3.17;2.70;;;;;;;11.36;69.18;100017.53;5046600;27;102528;-49
2021/12/20 07:07:47;;;;;;;3.30;3.00;;;;;;;11.36;68.99;100023.81;5040209;27;102726;-49
2021/12/20 07:10:14;;;;;;;3.45;2.97;;;;;;;11.35;68.84;100021.38;5041306;27;102671;-51
2021/12/20 07:12:40;;;;;;;3.25;2.95;;;;;;;11.36;68.84;100023.00;5039354;27;105567;-49
2021/12/20 07:15:11;;;;;;;3.10;2.80;;;;;;;11.36;69.19;100032.00;5041174;27;102702;-49
2021/12/20 07:17:38;;;;;;;3.45;2.80;;;;;;;11.36;68.81;100029.28;5045312;27;102271;-49
2021/12/20 07:20:06;;;;;;;2.85;2.65;;;;;;;11.36;68.96;100028.44;5040194;27;102886;-49
2021/12/20 07:22:33;;;;;;;3.40;3.00;;;;;;;11.36;69.29;100023.81;5038027;27;103656;-49
2021/12/20 07:25:01;;;;;;;4.00;3.00;;;;;;;11.37;68.73;100032.81;5035795;27;103275;-49
2021/12/20 07:27:30;;;;;;;3.58;2.75;;;;;;;11.36;68.89;100028.44;5051743;27;102260;-49
2021/12/20 07:29:57;;;;;;;2.50;2.20;;;;;;;11.36;69.19;100033.88;5049567;27;102632;-50
2021/12/20 07:32:23;;;;;;;3.20;2.90;;;;;;;11.37;68.82;100032.81;5038186;27;103918;-49
2021/12/20 07:34:50;;;;;;;3.17;2.33;;;;;;;11.37;69.07;100033.59;5038176;27;102203;-52
2021/12/20 07:37:17;;;;;;;2.88;2.67;;;;;;;11.37;68.85;100040.97;5033770;27;102289;-50
2021/12/20 07:39:44;;;;;;;3.10;2.80;;;;;;;11.38;69.17;100048.84;5035719;27;102592;-49
2021/12/20 07:42:11;;;;;;;3.47;3.17;;;;;;;11.36;68.88;100039.34;5036551;27;104003;-49
2021/12/20 07:44:38;;;;;;;4.30;2.78;;;;;;;11.37;68.82;100051.88;5043213;27;102349;-49
2021/12/20 07:47:04;;;;;;;3.00;2.70;;;;;;;11.36;69.36;100051.06;5036320;27;102133;-49
2021/12/20 07:49:33;;;;;;;3.72;2.65;;;;;;;11.37;68.90;100057.31;5038621;27;102363;-49
2021/12/20 07:52:00;;;;;;;3.10;2.80;;;;;;;11.37;69.31;100049.16;5041496;27;103397;-49
2021/12/20 07:54:27;;;;;;;3.72;2.58;;;;;;;11.37;68.99;100049.16;5034892;27;102709;-48
2021/12/20 07:56:53;;;;;;;3.33;2.65;;;;;;;11.37;69.01;100046.41;5047147;27;102056;-49
2021/12/20 07:59:21;;;;;;;3.47;2.75;;;;;;;11.37;69.28;100051.88;5036624;27;102214;-49
2021/12/20 08:01:48;;;;;;;3.60;3.03;;;;;;;11.36;69.18;100040.16;5042709;27;104105;-49
2021/12/20 08:04:26;;;;;;;2.67;2.40;;;;;;;11.37;69.08;100051.88;5042879;27;102822;-48
2021/12/20 08:06:53;;;;;;;2.50;2.30;;;;;;;11.36;69.24;100053.78;5040033;27;104255;-49
2021/12/20 08:09:37;;;;;;;2.85;2.50;;;;;;;11.36;69.15;100055.69;5042192;27;102400;-50
2021/12/20 08:12:05;;;;;;;3.58;2.95;;;;;;;11.37;69.14;100051.88;5041948;27;104010;-49
2021/12/20 08:14:51;;;;;;;3.38;2.83;;;;;;;11.37;69.29;100051.88;5046752;27;102031;-50
2021/12/20 08:17:17;;;;;;;3.22;2.80;;;;;;;11.37;68.99;100058.13;5037805;27;102386;-49
2021/12/20 08:19:43;;;;;;;4.50;3.13;;;;;;;11.37;69.33;100049.16;5041535;27;102411;-50
2021/12/20 08:22:10;;;;;;;3.03;2.53;;;;;;;11.38;69.06;100064.38;5032122;27;103858;-49
2021/12/20 08:24:36;;;;;;;3.08;2.78;;;;;;;11.38;68.93;100058.94;5035200;27;103484;-49
2021/12/20 08:27:03;;;;;;;4.00;3.08;;;;;;;11.38;68.86;100045.31;5034507;27;104484;-48
2021/12/20 08:29:30;;;;;;;3.20;2.60;;;;;;;11.38;69.17;100048.03;5031704;27;102679;-49
2021/12/20 08:32:02;;;;;;;3.40;2.67;;;;;;;11.38;69.10;100053.47;5036771;27;104004;-49
2021/12/20 08:34:31;;;;;;;3.08;2.65;;;;;;;11.38;69.19;100058.94;5033675;27;102445;-49
2021/12/20 08:36:58;;;;;;;2.58;2.38;;;;;;;11.38;69.37;100053.47;5031722;27;102188;-49
2021/12/20 08:39:25;;;;;;;2.53;2.30;;;;;;;11.36;68.89;100044.78;5032556;27;102623;-49
2021/12/20 08:42:10;;;;;;;3.05;2.40;;;;;;;11.37;68.99;100051.88;5038978;27;103122;-49
2021/12/20 08:44:42;;;;;;;2.95;2.22;;;;;;;11.38;68.88;100053.47;5030092;27;103142;-49
2021/12/20 08:47:32;;;;;;;3.10;2.13;;;;;;;11.37;68.98;100049.94;5044473;27;103090;-50
2021/12/20 08:49:59;;;;;;;4.00;2.92;;;;;;;11.37;68.86;100054.59;5039572;27;102413;-49
2021/12/20 08:52:25;;;;;;;4.35;2.83;;;;;;;11.38;69.14;100064.38;5035377;27;104078;-50
2021/12/20 08:55:10;;;;;;;2.97;2.58;;;;;;;11.37;68.98;100063.56;5027980;27;102737;-50
2021/12/20 08:57:37;;;;;;;4.45;3.22;;;;;;;11.36;68.99;100061.97;5025049;27;103986;-51
2021/12/20 09:00:06;;;;;;;3.72;2.60;;;;;;;11.36;69.19;100052.94;5039593;27;102347;-49
2021/12/20 09:02:34;;;;;;;4.25;2.58;;;;;;;11.36;68.95;100070.13;5043282;27;104743;-49
2021/12/20 09:05:01;;;;;;;4.07;3.17;;;;;;;11.37;69.23;100057.31;5041821;27;102475;-49
2021/12/20 09:07:45;;;;;;;3.78;2.75;;;;;;;11.36;68.99;100058.41;5040251;27;103163;-49
2021/12/20 09:10:16;;;;;;;3.10;2.65;;;;;;;11.35;68.69;100071.22;5042031;27;103180;-49
2021/12/20 09:12:51;;;;;;;3.58;2.45;;;;;;;11.36;68.97;100072.03;5033886;27;104397;-49
2021/12/20 09:15:18;;;;;;;2.97;2.42;;;;;;;11.35;69.20;100067.69;5044851;27;102147;-49
2021/12/20 09:17:49;;;;;;;3.00;2.60;;;;;;;11.37;69.27;100062.78;5042048;27;102203;-48
2021/12/20 09:20:18;;;;;;;3.05;2.40;;;;;;;11.36;68.92;100066.56;5034320;27;102651;-49
2021/12/20 09:22:57;;;;;;;3.63;2.53;;;;;;;11.35;68.88;100059.50;5036828;27;103163;-49
2021/12/20 09:25:27;;;;;;;4.25;2.30;;;;;;;11.36;69.16;100063.84;5039766;27;102008;-51
2021/12/20 09:27:55;;;;;;;3.08;2.28;;;;;;;11.36;69.16;100055.69;5033860;27;102707;-49
2021/12/20 09:30:25;;;;;;;3.58;2.65;;;;;;;11.35;69.17;100043.16;5038608;27;102477;-49
2021/12/20 09:32:52;;;;;;;3.55;2.35;;;;;;;11.35;68.90;100043.16;5035655;27;104014;-50
2021/12/20 09:35:19;;;;;;;3.17;2.30;;;;;;;11.35;68.85;100037.72;5035814;27;103725;-49
2021/12/20 09:37:50;;;;;;;3.22;2.30;;;;;;;11.35;69.09;100037.72;5032828;27;102212;-49
2021/12/20 09:40:20;;;;;;;3.25;2.47;;;;;;;11.35;68.86;100035.81;5043969;27;102993;-50
2021/12/20 09:42:49;;;;;;;3.95;2.55;;;;;;;11.35;69.03;100037.72;5039979;27;105413;-49
2021/12/20 09:45:16;;;;;;;;;;;;;;;11.35;69.29;100030.34;5037516;27;102147;-49
2021/12/20 09:47:43;;;;;;;3.33;2.22;;;;;;;11.36;69.12;100028.44;5040799;27;102490;-49
2021/12/20 09:50:15;;;;;;;3.33;2.08;;;;;;;11.36;69.15;100028.44;5037926;27;102584;-49
2021/12/20 09:52:43;;;;;;;;;;;;;;;11.36;69.00;100017.53;5039194;27;103942;-49
2021/12/20 09:55:10;;;;;;;2.30;1.80;;;;;;;11.36;68.94;100018.38;5037404;27;102510;-49
2021/12/20 09:57:37;;;;;;;2.70;2.00;;;;;;;11.37;68.77;100021.91;5042847;27;102069;-49
2021/12/20 10:00:08;;;;;;;3.55;2.17;;;;;;;11.36;68.85;100021.09;5037839;27;102271;-50
2021/12/20 10:02:36;;;;;;;3.15;2.13;;;;;;;11.37;69.15;100016.47;5037399;27;103679;-50
2021/12/20 10:05:04;;;;;;;3.00;2.08;;;;;;;11.35;68.89;100016.72;5042176;27;102074;-49
2021/12/20 10:07:33;;;;;;;3.05;2.58;;;;;;;11.36;68.69;100012.09;5039028;27;103654;-50
2021/12/20 10:10:02;;;;;;;3.60;2.28;;;;;;;11.37;68.93;100016.47;5045510;27;102401;-49
2021/12/20 10:12:34;;;;;;;2.53;2.00;;;;;;;11.37;68.77;100025.44;5045611;27;103947;-49
2021/12/20 10:15:05;;;;;;;3.17;1.90;;;;;;;11.37;68.79;100016.47;5044722;27;102181;-49
2021/12/20 10:17:36;;;;;;;3.05;1.90;;;;;;;11.37;68.89;100014.53;5037282;27;105318;-49
2021/12/20 10:20:14;;;;;;;2.42;1.85;;;;;;;11.36;68.94;100025.72;5045163;27;102561;-49
2021/12/20 10:22:42;;;;;;;2.92;1.98;;;;;;;11.36;68.91;100026.53;5037569;27;103845;-49
2021/12/20 10:25:27;;;;;;;2.27;1.83;;;;;;;11.35;69.02;100032.28;5037257;27;103799;-49
2021/12/20 10:28:02;;;;;;;2.67;1.75;;;;;;;11.36;68.65;100029.28;5042789;27;102166;-50
2021/12/20 10:30:32;;;;;;;2.13;1.70;;;;;;;11.37;69.07;100035.53;5038084;27;102651;-49
2021/12/20 10:32:58;;;;;;;;;;;;;;;11.36;68.96;100025.72;5042809;27;103894;-48
2021/12/20 10:35:30;;;;;;;2.88;1.75;;;;;;;11.35;69.16;100027.63;5040720;27;102465;-49
2021/12/20 10:38:00;;;;;;;2.15;1.70;;;;;;;11.36;69.03;100033.88;5040758;27;102307;-49
2021/12/20 10:40:27;;;;;;;2.60;1.90;;;;;;;11.36;68.78;100028.44;5042025;27;102440;-49
2021/12/20 10:42:56;;;;;;;2.67;1.83;;;;;;;11.35;68.64;100024.09;5038262;27;104241;-49
2021/12/20 10:45:25;;;;;;;2.63;1.80;;;;;;;11.36;68.54;100033.88;5040074;27;102650;-49
2021/12/20 10:48:08;;;;;;;1.83;1.50;;;;;;;11.35;68.84;100033.06;5040326;27;103509;-49
2021/12/20 10:50:43;;;;;;;6.50;1.67;;;;;;;11.35;68.62;100030.34;5040318;27;103232;-49
2021/12/20 10:53:20;;;;;;;2.25;1.55;;;;;;;11.36;68.97;100036.59;5045402;27;103845;-49
2021/12/20 10:55:48;;;;;;;2.35;1.60;;;;;;;11.35;68.26;100037.72;5042117;27;102898;-49
2021/12/20 10:58:31;;;;;;;2.53;1.60;;;;;;;11.35;68.90;100048.63;5039607;27;102093;-49
2021/12/20 11:04:11;;;;;;;1.83;1.50;;;;;;;11.35;68.42;100043.16;5040683;27;103875;-49
2021/12/20 11:07:01;;;;;;;2.55;1.77;;;;;;;11.35;68.44;100037.72;5043036;27;102691;-50
2021/12/20 11:09:32;;;;;;;2.28;1.70;;;;;;;11.36;68.39;100048.34;5043924;27;102104;-49
2021/12/20 11:12:01;;;;;;;2.40;1.77;;;;;;;11.35;68.69;100049.41;5038320;27;102128;-49
2021/12/20 11:14:28;;;;;;;;;;;;;;;11.37;68.71;100047.22;5045530;27;104473;-49
2021/12/20 11:16:57;;;;;;;2.30;1.75;;;;;;;11.36;68.96;100040.16;5049290;27;102425;-49
2021/12/20 11:19:29;;;;;;;2.25;1.77;;;;;;;11.36;68.40;100045.63;5044803;27;102191;-49
2021/12/20 11:22:07;;;;;;;3.38;1.63;;;;;;;11.37;68.92;100051.88;5037445;27;104805;-49
2021/12/20 11:24:39;;;;;;;1.87;1.50;;;;;;;11.36;68.84;100052.94;5047957;27;103931;-48
2021/12/20 11:27:08;;;;;;;1.42;1.17;;;;;;;11.37;68.80;100051.88;5050642;27;102405;-48
2021/12/20 11:29:36;;;;;;;2.08;1.50;;;;;;;11.36;68.93;100051.06;5037041;27;102978;-49
2021/12/20 11:32:04;;;;;;;2.08;1.60;;;;;;;11.37;68.68;100062.78;5035562;27;102560;-49
2021/12/20 11:34:30;;;;;;;3.28;1.63;;;;;;;11.36;68.61;100064.69;5040353;27;104061;-49
2021/12/20 11:36:57;;;;;;;2.00;1.40;;;;;;;11.36;68.71;100061.97;5051268;27;102123;-49
2021/12/20 11:39:24;;;;;;;2.25;1.60;;;;;;;11.37;68.42;100057.31;5038321;27;102648;-49
2021/12/20 11:41:52;;;;;;;2.05;1.63;;;;;;;11.37;68.71;100054.59;5040150;27;102522;-49
2021/12/20 11:44:21;;;;;;;2.38;1.40;;;;;;;11.36;68.29;100055.69;5034808;27;103857;-48